Time;durP1;ratioP1;P1;durP2;ratioP2;P2;SDS_P1;SDS_P2;PMS_P1;PMS_P2;Temp;Humidity;BMP_temperature;BMP_pressure;BME280_temperature;BME280_humidity;BME280_pressure;Samples;Min_cycle;Max_cycle;Signal;HPM_P1;HPM_P2
2023/05/26 00:02:01;;;;;;;;;;;14.50;96.80;;;;;;5060356;28;19908;-51
2023/05/26 00:04:27;;;;;;;;;;;14.50;95.00;;;;;;5060866;28;20401;-54
2023/05/26 00:06:54;;;;;;;;;;;14.50;93.40;;;;;;5060679;28;19909;-53
2023/05/26 00:09:20;;;;;;;;;;;14.50;95.70;;;;;;5060622;28;19913;-55
2023/05/26 00:11:46;;;;;;;;;;;14.50;91.80;;;;;;5060260;28;19915;-55
2023/05/26 00:14:14;;;;;;;;;;;14.50;96.50;;;;;;5060027;28;19956;-52
2023/05/26 00:16:40;;;;;;;;;;;14.50;96.00;;;;;;5060366;28;19912;-56
2023/05/26 00:19:07;;;;;;;;;;;14.90;92.10;;;;;;5060648;28;19909;-54
2023/05/26 00:21:33;;;;;;;;;;;14.40;93.30;;;;;;5060387;28;19996;-56
2023/05/26 00:23:59;;;;;;;;;;;14.40;93.30;;;;;;5041898;28;19966;-53
2023/05/26 00:26:25;;;;;;;;;;;14.40;93.30;;;;;;5060637;28;19996;-56
2023/05/26 00:28:51;;;;;;;;;;;14.40;96.80;;;;;;5059788;28;19909;-53
2023/05/26 00:31:17;;;;;;;;;;;14.30;97.20;;;;;;5059891;28;19920;-54
2023/05/26 00:33:42;;;;;;;;;;;14.30;99.00;;;;;;5060106;28;19908;-56
2023/05/26 00:36:08;;;;;;;;;;;14.30;95.60;;;;;;5060147;28;20450;-55
2023/05/26 00:38:33;;;;;;;;;;;14.30;95.00;;;;;;5060378;28;19908;-55
2023/05/26 00:40:59;;;;;;;;;;;14.30;97.00;;;;;;5060129;28;19916;-54
2023/05/26 00:43:25;;;;;;;;;;;14.20;95.20;;;;;;5060018;28;19958;-54
2023/05/26 00:45:51;;;;;;;;;;;14.20;96.60;;;;;;5059494;28;19913;-52
2023/05/26 00:48:16;;;;;;;;;;;14.20;96.20;;;;;;5060081;28;20663;-56
2023/05/26 00:50:42;;;;;;;;;;;14.20;99.90;;;;;;5059750;28;20030;-52
2023/05/26 00:53:08;;;;;;;;;;;14.20;98.70;;;;;;5059581;28;20365;-54
2023/05/26 00:55:34;;;;;;;;;;;14.20;95.90;;;;;;5059841;28;19909;-55
2023/05/26 00:58:00;;;;;;;;;;;14.10;93.90;;;;;;5059753;28;19908;-54
2023/05/26 01:00:26;;;;;;;;;;;14.10;95.50;;;;;;5060009;28;19909;-55
2023/05/26 01:02:55;;;;;;;;;;;14.10;97.10;;;;;;5059592;28;19912;-55
2023/05/26 01:05:21;;;;;;;;;;;14.10;97.00;;;;;;5059514;28;19913;-53
2023/05/26 01:07:47;;;;;;;;;;;14.00;96.30;;;;;;5059568;28;19943;-53
2023/05/26 01:10:12;;;;;;;;;;;14.00;99.90;;;;;;5058345;28;19916;-54
2023/05/26 01:12:43;;;;;;;;;;;14.00;96.00;;;;;;5059477;28;19920;-53
2023/05/26 01:15:13;;;;;;;;;;;13.90;98.50;;;;;;5059451;28;19977;-53
2023/05/26 01:17:56;;;;;;;;;;;13.90;97.90;;;;;;5059181;28;19908;-54
2023/05/26 01:20:37;;;;;;;;;;;13.90;98.10;;;;;;5059388;28;19916;-55
2023/05/26 01:23:14;;;;;;;;;;;13.90;97.10;;;;;;5059044;28;19948;-56
2023/05/26 01:25:40;;;;;;;;;;;13.80;97.70;;;;;;5059396;28;19928;-55
2023/05/26 01:28:16;;;;;;;;;;;13.80;96.80;;;;;;5059183;28;20276;-56
2023/05/26 01:30:45;;;;;;;;;;;13.80;97.60;;;;;;5059163;28;19909;-55
2023/05/26 01:33:11;;;;;;;;;;;13.70;97.20;;;;;;5059409;28;19963;-50
2023/05/26 01:35:37;;;;;;;;;;;13.70;98.70;;;;;;5059169;28;19909;-51
2023/05/26 01:38:03;;;;;;;;;;;13.70;97.60;;;;;;5058819;28;19955;-53
2023/05/26 01:40:29;;;;;;;;;;;13.70;97.50;;;;;;5058966;28;20360;-55
2023/05/26 01:43:01;;;;;;;;;;;13.70;99.90;;;;;;5069000;28;19913;-53
2023/05/26 01:45:30;;;;;;;;;;;13.70;99.90;;;;;;5071130;28;19913;-55
2023/05/26 01:47:58;;;;;;;;;;;13.70;98.10;;;;;;5078549;28;19944;-55
2023/05/26 01:50:26;;;;;;;;;;;13.60;99.90;;;;;;5078799;28;19916;-53
2023/05/26 01:52:56;;;;;;;;;;;13.60;99.30;;;;;;5078456;28;20334;-55
2023/05/26 01:55:22;;;;;;;;;;;13.60;99.90;;;;;;5078485;28;19916;-56
2023/05/26 01:57:48;;;;;;;;;;;13.60;99.90;;;;;;5078317;28;19930;-56
2023/05/26 02:00:14;;;;;;;;;;;13.60;99.80;;;;;;5078417;28;19909;-55
2023/05/26 02:02:39;;;;;;;;;;;13.60;99.90;;;;;;5078241;28;19920;-55
2023/05/26 02:05:06;;;;;;;;;;;13.60;99.90;;;;;;5078730;28;19935;-55
2023/05/26 02:07:34;;;;;;;;;;;13.50;99.90;;;;;;5078476;28;19908;-55
2023/05/26 02:10:00;;;;;;;;;;;13.50;99.90;;;;;;5078407;28;19916;-55
2023/05/26 02:12:26;;;;;;;;;;;13.60;99.90;;;;;;5078428;28;19912;-55
2023/05/26 02:14:51;;;;;;;;;;;13.60;99.90;;;;;;5078449;28;20006;-53
2023/05/26 02:17:18;;;;;;;;;;;13.50;99.90;;;;;;5078145;28;19955;-53
2023/05/26 02:19:44;;;;;;;;;;;13.50;99.90;;;;;;5078237;28;19908;-53
2023/05/26 02:22:12;;;;;;;;;;;13.50;99.90;;;;;;5077908;28;19913;-56
2023/05/26 02:24:37;;;;;;;;;;;13.50;99.90;;;;;;5078020;28;19916;-52
2023/05/26 02:27:03;;;;;;;;;;;13.60;99.90;;;;;;5076839;28;19931;-56
2023/05/26 02:29:29;;;;;;;;;;;13.60;99.90;;;;;;5078051;28;19915;-56
2023/05/26 02:31:54;;;;;;;;;;;13.50;99.90;;;;;;5078402;28;20365;-53
2023/05/26 02:34:20;;;;;;;;;;;13.50;99.90;;;;;;5078186;28;19913;-55
2023/05/26 02:36:45;;;;;;;;;;;13.50;99.90;;;;;;5078112;28;20375;-55
2023/05/26 02:39:11;;;;;;;;;;;13.50;99.90;;;;;;5078144;28;19909;-53
2023/05/26 02:41:37;;;;;;;;;;;13.50;99.90;;;;;;5077869;28;19959;-51
2023/05/26 02:44:02;;;;;;;;;;;13.40;99.90;;;;;;5077946;28;19932;-55
2023/05/26 02:46:28;;;;;;;;;;;13.40;99.90;;;;;;5078232;28;19916;-55
2023/05/26 02:48:53;;;;;;;;;;;13.40;99.90;;;;;;5078048;28;19908;-53
2023/05/26 02:51:19;;;;;;;;;;;13.40;99.90;;;;;;5078177;28;19909;-55
2023/05/26 02:53:45;;;;;;;;;;;13.40;99.90;;;;;;5077807;28;19948;-52
2023/05/26 02:56:10;;;;;;;;;;;13.40;99.90;;;;;;5077509;28;19930;-53
2023/05/26 02:58:36;;;;;;;;;;;13.40;99.90;;;;;;5077739;28;19916;-55
2023/05/26 03:01:02;;;;;;;;;;;13.40;99.90;;;;;;5078174;28;19908;-55
2023/05/26 03:03:28;;;;;;;;;;;13.30;99.90;;;;;;5077658;28;20382;-56
2023/05/26 03:05:55;;;;;;;;;;;13.30;99.90;;;;;;5077368;28;19912;-55
2023/05/26 03:08:20;;;;;;;;;;;13.30;99.90;;;;;;5077629;28;19912;-55
2023/05/26 03:10:46;;;;;;;;;;;13.30;99.90;;;;;;5078010;28;19962;-53
2023/05/26 03:13:12;;;;;;;;;;;13.30;99.90;;;;;;5077439;28;20291;-52
2023/05/26 03:15:39;;;;;;;;;;;13.30;99.90;;;;;;5077475;28;19923;-53
2023/05/26 03:18:04;;;;;;;;;;;13.30;99.90;;;;;;5077268;28;20325;-53
2023/05/26 03:20:30;;;;;;;;;;;13.20;99.90;;;;;;5077954;28;19951;-54
2023/05/26 03:22:56;;;;;;;;;;;13.30;99.90;;;;;;5077530;28;19932;-51
2023/05/26 03:25:22;;;;;;;;;;;13.20;99.90;;;;;;5077587;28;19917;-55
2023/05/26 03:27:47;;;;;;;;;;;13.20;99.90;;;;;;5077525;28;19915;-52
2023/05/26 03:30:13;;;;;;;;;;;13.20;99.90;;;;;;5077427;28;19909;-55
2023/05/26 03:32:39;;;;;;;;;;;13.10;99.90;;;;;;5077580;28;19912;-53
2023/05/26 03:35:05;;;;;;;;;;;13.10;99.90;;;;;;5080925;28;20264;-50
2023/05/26 03:37:30;;;;;;;;;;;13.20;99.90;;;;;;5081619;28;19981;-53
2023/05/26 03:39:56;;;;;;;;;;;13.10;99.90;;;;;;5081062;28;20351;-55
2023/05/26 03:42:22;;;;;;;;;;;13.10;99.90;;;;;;5081359;28;19908;-54
2023/05/26 03:44:48;;;;;;;;;;;13.10;99.90;;;;;;5081075;28;19912;-55
2023/05/26 03:47:13;;;;;;;;;;;13.10;99.90;;;;;;5081383;28;19963;-51
2023/05/26 03:49:39;;;;;;;;;;;13.00;99.90;;;;;;5081108;28;19908;-55
2023/05/26 03:52:04;;;;;;;;;;;13.10;99.90;;;;;;5080638;28;19908;-54
2023/05/26 03:54:30;;;;;;;;;;;13.10;99.90;;;;;;5080777;28;19913;-55
2023/05/26 03:56:56;;;;;;;;;;;13.00;99.90;;;;;;5081070;28;19908;-56
2023/05/26 03:59:21;;;;;;;;;;;13.00;99.90;;;;;;5080959;28;19915;-51
2023/05/26 04:01:47;;;;;;;;;;;13.00;99.90;;;;;;5080885;28;19916;-56
2023/05/26 04:04:13;;;;;;;;;;;13.00;99.90;;;;;;5080604;28;20272;-54
2023/05/26 04:06:39;;;;;;;;;;;13.10;99.90;;;;;;5080595;28;20405;-55
2023/05/26 04:09:04;;;;;;;;;;;13.00;99.90;;;;;;5080737;28;19931;-55
2023/05/26 04:11:30;;;;;;;;;;;13.00;99.90;;;;;;5080703;28;19913;-55
2023/05/26 04:13:56;;;;;;;;;;;13.00;99.90;;;;;;5080948;28;19916;-55
2023/05/26 04:16:22;;;;;;;;;;;13.00;99.90;;;;;;5080587;28;19908;-52
2023/05/26 04:18:47;;;;;;;;;;;13.00;99.90;;;;;;5080567;28;19951;-56
2023/05/26 04:21:13;;;;;;;;;;;13.00;99.90;;;;;;5080465;28;19915;-54
2023/05/26 04:23:38;;;;;;;;;;;13.00;99.90;;;;;;5080180;28;19931;-53
2023/05/26 04:26:04;;;;;;;;;;;12.90;99.90;;;;;;5080071;28;19920;-55
2023/05/26 04:28:30;;;;;;;;;;;13.00;99.90;;;;;;5080368;28;20046;-54
2023/05/26 04:30:56;;;;;;;;;;;12.90;99.90;;;;;;5080509;28;20379;-54
2023/05/26 04:33:22;;;;;;;;;;;12.90;99.90;;;;;;5080372;28;19930;-53
2023/05/26 04:35:48;;;;;;;;;;;12.90;99.90;;;;;;5080200;28;19908;-54
2023/05/26 04:38:15;;;;;;;;;;;12.90;99.90;;;;;;5080465;28;19966;-55
2023/05/26 04:40:41;;;;;;;;;;;12.90;99.90;;;;;;5062011;28;19909;-53
2023/05/26 04:43:06;;;;;;;;;;;13.00;99.90;;;;;;5079976;28;19999;-56
2023/05/26 04:45:40;;;;;;;;;;;12.90;99.90;;;;;;5079732;28;19913;-53
2023/05/26 04:48:06;;;;;;;;;;;12.90;99.90;;;;;;5079823;28;19912;-52
2023/05/26 04:50:32;;;;;;;;;;;12.90;99.90;;;;;;5080328;28;19999;-55
2023/05/26 04:52:58;;;;;;;;;;;12.90;99.90;;;;;;5079843;28;19915;-56
2023/05/26 04:55:25;;;;;;;;;;;13.00;99.90;;;;;;5079573;28;20328;-55
2023/05/26 04:57:50;;;;;;;;;;;12.90;99.90;;;;;;5079793;28;19912;-55
2023/05/26 05:00:16;;;;;;;;;;;12.90;99.90;;;;;;5080017;28;19915;-55
2023/05/26 05:02:42;;;;;;;;;;;12.90;99.90;;;;;;5079494;28;19908;-56
2023/05/26 05:05:08;;;;;;;;;;;13.00;99.90;;;;;;5079711;28;20386;-54
2023/05/26 05:07:33;;;;;;;;;;;13.00;99.90;;;;;;5079886;28;19908;-54
2023/05/26 05:09:59;;;;;;;;;;;12.90;99.90;;;;;;5079374;28;19955;-54
2023/05/26 05:12:25;;;;;;;;;;;12.90;99.90;;;;;;5079306;28;19912;-55
2023/05/26 05:14:51;;;;;;;;;;;12.90;99.90;;;;;;5079534;28;20271;-54
2023/05/26 05:17:17;;;;;;;;;;;13.00;99.90;;;;;;5079365;28;20042;-55
2023/05/26 05:19:43;;;;;;;;;;;13.00;99.90;;;;;;5079356;28;19908;-55
2023/05/26 05:22:08;;;;;;;;;;;13.00;99.90;;;;;;5078936;28;19912;-54
2023/05/26 05:24:34;;;;;;;;;;;13.00;99.90;;;;;;5078845;28;20376;-55
2023/05/26 05:27:01;;;;;;;;;;;13.00;99.90;;;;;;5079481;28;19928;-56
2023/05/26 05:29:27;;;;;;;;;;;13.10;99.90;;;;;;5079150;28;19951;-55
2023/05/26 05:31:53;;;;;;;;;;;13.10;99.90;;;;;;5079337;28;19909;-55
2023/05/26 05:34:18;;;;;;;;;;;13.10;99.90;;;;;;5078431;28;19908;-56
2023/05/26 05:36:44;;;;;;;;;;;13.20;99.90;;;;;;5079198;28;19984;-55
2023/05/26 05:39:10;;;;;;;;;;;13.20;99.90;;;;;;5078592;28;19913;-56
2023/05/26 05:41:36;;;;;;;;;;;13.20;99.90;;;;;;5078829;28;19909;-55
2023/05/26 05:44:02;;;;;;;;;;;13.20;99.90;;;;;;5078568;28;19909;-56
2023/05/26 05:46:28;;;;;;;;;;;13.20;99.90;;;;;;5078746;28;19954;-53
2023/05/26 05:48:54;;;;;;;;;;;13.20;99.90;;;;;;5078741;28;19912;-57
2023/05/26 05:51:19;;;;;;;;;;;13.30;99.90;;;;;;5078391;28;19920;-55
2023/05/26 05:53:45;;;;;;;;;;;13.30;99.90;;;;;;5078404;28;20011;-52
2023/05/26 05:56:11;;;;;;;;;;;13.40;99.90;;;;;;5077965;28;19909;-54
2023/05/26 05:58:36;;;;;;;;;;;13.50;99.90;;;;;;5078311;28;19915;-53
2023/05/26 06:01:02;;;;;;;;;;;13.50;99.90;;;;;;5078523;28;19959;-56
2023/05/26 06:03:28;;;;;;;;;;;13.50;99.90;;;;;;5078054;28;19909;-56
2023/05/26 06:05:53;;;;;;;;;;;13.60;99.90;;;;;;5078093;28;19912;-53
2023/05/26 06:08:19;;;;;;;;;;;13.60;99.90;;;;;;5078437;28;19908;-55
2023/05/26 06:10:45;;;;;;;;;;;13.70;99.90;;;;;;5078099;28;19909;-54
2023/05/26 06:13:10;;;;;;;;;;;13.60;99.90;;;;;;5077811;28;19982;-54
2023/05/26 06:15:36;;;;;;;;;;;13.70;99.90;;;;;;5077846;28;19913;-55
2023/05/26 06:18:02;;;;;;;;;;;13.80;99.90;;;;;;5078157;28;19909;-53
2023/05/26 06:20:27;;;;;;;;;;;13.80;99.90;;;;;;5078548;28;19941;-54
2023/05/26 06:22:53;;;;;;;;;;;13.90;99.90;;;;;;5077582;28;20011;-54
2023/05/26 06:25:19;;;;;;;;;;;13.90;99.90;;;;;;5059704;28;19917;-52
2023/05/26 06:27:44;;;;;;;;;;;14.00;99.90;;;;;;5078214;28;20380;-55
2023/05/26 06:30:10;;;;;;;;;;;14.00;99.90;;;;;;5077885;28;20429;-56
2023/05/26 06:32:36;;;;;;;;;;;14.00;99.90;;;;;;5078148;28;19915;-55
2023/05/26 06:35:01;;;;;;;;;;;14.10;99.90;;;;;;5077828;28;20436;-56
2023/05/26 06:37:27;;;;;;;;;;;14.10;99.90;;;;;;5077982;28;20406;-55
2023/05/26 06:39:53;;;;;;;;;;;14.20;99.90;;;;;;5077989;28;19912;-56
2023/05/26 06:42:18;;;;;;;;;;;14.20;99.90;;;;;;5078101;28;20003;-54
2023/05/26 06:44:44;;;;;;;;;;;14.30;99.90;;;;;;5077581;28;19934;-53
2023/05/26 06:47:10;;;;;;;;;;;14.30;99.90;;;;;;5078109;28;19915;-54
2023/05/26 06:49:35;;;;;;;;;;;14.40;99.90;;;;;;5077620;28;20268;-55
2023/05/26 06:52:01;;;;;;;;;;;14.50;99.90;;;;;;5077731;28;19908;-55
2023/05/26 06:54:26;;;;;;;;;;;14.50;99.90;;;;;;5077620;28;19909;-53
2023/05/26 06:56:52;;;;;;;;;;;14.60;99.90;;;;;;5078063;28;19909;-56
2023/05/26 06:59:18;;;;;;;;;;;14.70;99.90;;;;;;5077737;28;19909;-56
2023/05/26 07:01:43;;;;;;;;;;;14.70;99.90;;;;;;5077361;28;19958;-56
2023/05/26 07:04:10;;;;;;;;;;;14.80;99.90;;;;;;5058883;28;19921;-54
2023/05/26 07:06:35;;;;;;;;;;;14.80;99.90;;;;;;5078005;28;20288;-56
2023/05/26 07:09:01;;;;;;;;;;;14.90;99.90;;;;;;5080974;28;19909;-54
2023/05/26 07:11:26;;;;;;;;;;;15.00;99.90;;;;;;5081808;28;19938;-53
2023/05/26 07:13:53;;;;;;;;;;;15.00;99.90;;;;;;5068110;28;20045;-55
2023/05/26 07:16:20;;;;;;;;;;;15.00;99.90;;;;;;5060574;28;19999;-56
2023/05/26 07:18:45;;;;;;;;;;;15.10;99.90;;;;;;5061316;28;19999;-56
2023/05/26 07:21:11;;;;;;;;;;;15.20;99.90;;;;;;5061785;28;20002;-55
2023/05/26 07:23:36;;;;;;;;;;;15.20;99.90;;;;;;5061461;28;20003;-56
2023/05/26 07:26:02;;;;;;;;;;;15.30;99.90;;;;;;5061412;28;20411;-55
2023/05/26 07:28:28;;;;;;;;;;;15.40;99.90;;;;;;5061366;28;20371;-56
2023/05/26 07:30:53;;;;;;;;;;;15.50;99.90;;;;;;5061589;28;20245;-55
2023/05/26 07:33:19;;;;;;;;;;;15.60;99.90;;;;;;5060738;28;20526;-55
2023/05/26 07:35:45;;;;;;;;;;;15.60;99.90;;;;;;5060157;28;19909;-55
2023/05/26 07:38:10;;;;;;;;;;;15.70;99.90;;;;;;5058534;28;19999;-55
2023/05/26 07:40:36;;;;;;;;;;;15.70;99.90;;;;;;5061414;28;19916;-54
2023/05/26 07:43:02;;;;;;;;;;;15.80;99.90;;;;;;5060939;28;20388;-56
2023/05/26 07:45:28;;;;;;;;;;;15.90;99.90;;;;;;5060497;28;20375;-55
2023/05/26 07:47:53;;;;;;;;;;;15.90;99.90;;;;;;5060958;28;19909;-54
2023/05/26 07:50:19;;;;;;;;;;;16.00;99.90;;;;;;5060614;28;19916;-55
2023/05/26 07:52:45;;;;;;;;;;;16.10;99.90;;;;;;5061032;28;19908;-54
2023/05/26 07:55:11;;;;;;;;;;;16.20;99.90;;;;;;5060746;28;19916;-56
2023/05/26 07:57:36;;;;;;;;;;;16.20;99.90;;;;;;5060478;28;19908;-55
2023/05/26 08:00:03;;;;;;;;;;;16.30;99.90;;;;;;5060834;28;20450;-54
2023/05/26 08:02:29;;;;;;;;;;;16.40;99.90;;;;;;5060383;28;19959;-55
2023/05/26 08:04:55;;;;;;;;;;;16.40;99.90;;;;;;5060796;28;20007;-56
2023/05/26 08:07:21;;;;;;;;;;;16.40;99.90;;;;;;5060695;28;19912;-55
2023/05/26 08:09:46;;;;;;;;;;;16.50;99.90;;;;;;5060395;28;19916;-55
2023/05/26 08:12:12;;;;;;;;;;;16.50;99.90;;;;;;5060450;28;19931;-54
2023/05/26 08:14:38;;;;;;;;;;;16.60;99.90;;;;;;5060346;28;19909;-54
2023/05/26 08:17:04;;;;;;;;;;;16.70;99.90;;;;;;5060487;28;19909;-55
2023/05/26 08:19:29;;;;;;;;;;;16.80;99.90;;;;;;5059200;28;19909;-56
2023/05/26 08:21:55;;;;;;;;;;;16.90;99.90;;;;;;5058731;28;19916;-56
2023/05/26 08:24:23;;;;;;;;;;;17.00;99.90;;;;;;5060024;28;19917;-56
2023/05/26 08:26:49;;;;;;;;;;;17.00;99.90;;;;;;5060220;28;19909;-56
2023/05/26 08:29:15;;;;;;;;;;;17.10;99.90;;;;;;5060186;28;19923;-54
2023/05/26 08:31:40;;;;;;;;;;;17.20;99.90;;;;;;5060381;28;20302;-55
2023/05/26 08:34:06;;;;;;;;;;;17.20;99.90;;;;;;5060270;28;19915;-56
2023/05/26 08:36:33;;;;;;;;;;;17.30;99.90;;;;;;5060118;28;19953;-53
2023/05/26 08:38:59;;;;;;;;;;;17.30;99.90;;;;;;5059826;28;20371;-53
2023/05/26 08:41:26;;;;;;;;;;;17.30;99.90;;;;;;5060260;28;19931;-53
2023/05/26 08:43:56;;;;;;;;;;;17.40;99.90;;;;;;5059797;28;20410;-55
2023/05/26 08:46:22;;;;;;;;;;;17.50;99.90;;;;;;5059773;28;19913;-56
2023/05/26 08:48:49;;;;;;;;;;;17.60;99.90;;;;;;5059834;28;19924;-55
2023/05/26 08:51:15;;;;;;;;;;;17.60;99.90;;;;;;5059811;28;19911;-56
2023/05/26 08:53:41;;;;;;;;;;;17.70;99.90;;;;;;5059773;28;19920;-52
2023/05/26 08:56:07;;;;;;;;;;;17.70;99.90;;;;;;5059473;28;19936;-54
2023/05/26 08:58:34;;;;;;;;;;;17.80;99.90;;;;;;5059652;28;19915;-55
2023/05/26 09:01:00;;;;;;;;;;;17.90;99.90;;;;;;5059581;28;20299;-56
2023/05/26 09:03:26;;;;;;;;;;;17.90;99.90;;;;;;5059591;28;19909;-54
2023/05/26 09:05:52;;;;;;;;;;;18.00;99.90;;;;;;5059450;28;19935;-56
2023/05/26 09:08:17;;;;;;;;;;;18.10;99.90;;;;;;5059727;28;19983;-55
2023/05/26 09:10:43;;;;;;;;;;;18.10;99.90;;;;;;5059445;28;20000;-54
2023/05/26 09:13:10;;;;;;;;;;;18.20;99.90;;;;;;5059022;28;20437;-53
2023/05/26 09:15:36;;;;;;;;;;;18.20;99.90;;;;;;5059362;28;19909;-55
2023/05/26 09:18:20;;;;;;;;;;;18.30;99.90;;;;;;5059386;28;20372;-55
2023/05/26 09:20:47;;;;;;;;;;;18.30;99.90;;;;;;5059522;28;19984;-53
2023/05/26 09:23:16;;;;;;;;;;;18.30;99.90;;;;;;5059029;28;20007;-55
2023/05/26 09:25:46;;;;;;;;;;;18.40;99.90;;;;;;5059092;28;19924;-55
2023/05/26 09:28:12;;;;;;;;;;;18.50;99.90;;;;;;5059132;28;20326;-53
2023/05/26 09:30:42;;;;;;;;;;;18.40;99.90;;;;;;5058159;28;20420;-55
2023/05/26 09:33:16;;;;;;;;;;;18.50;99.90;;;;;;5058762;28;19916;-54
2023/05/26 09:35:43;;;;;;;;;;;18.70;99.90;;;;;;5058563;28;20442;-56
2023/05/26 09:38:09;;;;;;;;;;;18.80;99.90;;;;;;5059091;28;20449;-54
2023/05/26 09:40:39;;;;;;;;;;;18.90;99.90;;;;;;5059037;28;19909;-54
2023/05/26 09:43:05;;;;;;;;;;;19.00;99.90;;;;;;5058732;28;19916;-53
2023/05/26 09:45:37;;;;;;;;;;;19.20;99.90;;;;;;5058760;28;20398;-55
2023/05/26 09:48:03;;;;;;;;;;;19.30;99.90;;;;;;5058458;28;19916;-56
2023/05/26 09:50:30;;;;;;;;;;;19.50;99.90;;;;;;5058492;28;19915;-55
2023/05/26 09:52:56;;;;;;;;;;;19.80;99.90;;;;;;5058641;28;19954;-53
2023/05/26 09:55:22;;;;;;;;;;;19.90;99.70;;;;;;5058606;28;19908;-55
2023/05/26 09:57:48;;;;;;;;;;;20.20;99.90;;;;;;5058343;28;20260;-54
2023/05/26 10:00:16;;;;;;;;;;;20.40;99.90;;;;;;5058628;28;19996;-54
2023/05/26 10:02:42;;;;;;;;;;;20.70;96.00;;;;;;5058446;28;19909;-56
2023/05/26 10:05:08;;;;;;;;;;;20.80;96.10;;;;;;5058176;28;19913;-56
2023/05/26 10:07:34;;;;;;;;;;;21.20;95.60;;;;;;5058396;28;19943;-56
2023/05/26 10:10:00;;;;;;;;;;;21.80;99.90;;;;;;5058621;28;20457;-53
2023/05/26 10:12:27;;;;;;;;;;;22.30;88.00;;;;;;5057908;28;19960;-52
2023/05/26 10:14:53;;;;;;;;;;;23.10;99.90;;;;;;5058291;28;19916;-53
2023/05/26 10:17:20;;;;;;;;;;;23.80;99.00;;;;;;5058097;28;19958;-56
2023/05/26 10:19:46;;;;;;;;;;;24.10;81.00;;;;;;5058611;28;19915;-56
2023/05/26 10:22:16;;;;;;;;;;;25.20;99.50;;;;;;5057997;28;20000;-56
2023/05/26 10:24:45;;;;;;;;;;;25.60;96.70;;;;;;5057819;28;20451;-56
2023/05/26 10:27:16;;;;;;;;;;;26.40;79.40;;;;;;5058108;28;20382;-56
2023/05/26 10:29:46;;;;;;;;;;;26.60;85.10;;;;;;5057922;28;19908;-56
2023/05/26 10:32:31;;;;;;;;;;;27.40;68.50;;;;;;5057601;28;19909;-56
2023/05/26 10:34:56;;;;;;;;;;;27.70;87.00;;;;;;5057946;28;19916;-55
2023/05/26 10:37:25;;;;;;;;;;;28.10;63.00;;;;;;5057589;28;19909;-56
2023/05/26 10:39:51;;;;;;;;;;;28.20;81.70;;;;;;5057597;28;19952;-56
2023/05/26 10:42:17;;;;;;;;;;;27.90;62.90;;;;;;5057690;28;20438;-56
2023/05/26 10:44:51;;;;;;;;;;;28.50;66.30;;;;;;5057630;28;19917;-56
2023/05/26 10:47:18;;;;;;;;;;;29.60;61.00;;;;;;5057637;28;19920;-56
2023/05/26 10:49:59;;;;;;;;;;;29.70;63.60;;;;;;5057891;28;19916;-54
2023/05/26 10:52:25;;;;;;;;;;;29.90;57.90;;;;;;5057703;28;19909;-57
2023/05/26 10:54:51;;;;;;;;;;;30.00;62.00;;;;;;5057352;28;20283;-56
2023/05/26 10:57:43;;;;;;;;;;;31.10;61.10;;;;;;5057772;28;19919;-56
2023/05/26 11:00:38;;;;;;;;;;;31.50;53.40;;;;;;5055716;28;19909;-57
2023/05/26 11:03:23;;;;;;;;;;;28.80;48.00;;;;;;5048167;28;19909;-57
2023/05/26 11:05:58;;;;;;;;;;;29.20;54.10;;;;;;5057631;28;19950;-56
2023/05/26 11:08:23;;;;;;;;;;;30.90;61.70;;;;;;5057615;28;19909;-54
2023/05/26 11:11:02;;;;;;;;;;;31.00;52.20;;;;;;5057481;28;19916;-57
2023/05/26 11:13:47;;;;;;;;;;;31.20;52.60;;;;;;5057295;28;19923;-57
2023/05/26 11:16:23;;;;;;;;;;;30.70;54.30;;;;;;5057546;28;19944;-55
2023/05/26 11:18:49;;;;;;;;;;;31.60;50.40;;;;;;5057557;28;19908;-56
2023/05/26 11:21:17;;;;;;;;;;;31.60;51.30;;;;;;5057751;28;19909;-54
2023/05/26 11:23:43;;;;;;;;;;;30.80;47.80;;;;;;5057372;28;19916;-54
2023/05/26 11:26:10;;;;;;;;;;;31.20;48.00;;;;;;5057370;28;19917;-56
2023/05/26 11:28:39;;;;;;;;;;;31.40;46.60;;;;;;5057512;28;19915;-58
2023/05/26 11:31:15;;;;;;;;;;;32.20;44.50;;;;;;5057178;28;19909;-56
2023/05/26 11:33:42;;;;;;;;;;;31.70;43.00;;;;;;5057042;28;20295;-57
2023/05/26 11:36:17;;;;;;;;;;;30.50;43.60;;;;;;5057248;28;19909;-57
2023/05/26 11:38:44;;;;;;;;;;;31.10;42.90;;;;;;5056889;28;19916;-55
2023/05/26 11:41:11;;;;;;;;;;;30.70;42.60;;;;;;5057031;28;19954;-57
2023/05/26 11:43:37;;;;;;;;;;;31.10;42.60;;;;;;5057121;28;20372;-57
2023/05/26 11:46:04;;;;;;;;;;;31.40;44.40;;;;;;5057058;28;19919;-57
2023/05/26 11:48:39;;;;;;;;;;;30.30;40.80;;;;;;5057132;28;20438;-55
2023/05/26 11:51:15;;;;;;;;;;;29.50;42.80;;;;;;5056967;28;19909;-57
2023/05/26 11:53:42;;;;;;;;;;;29.90;45.30;;;;;;5056817;28;20433;-55
2023/05/26 11:56:11;;;;;;;;;;;29.90;45.00;;;;;;5060825;28;19915;-56
2023/05/26 11:58:45;;;;;;;;;;;30.20;43.00;;;;;;5060787;28;19974;-57
2023/05/26 12:01:11;;;;;;;;;;;30.90;43.20;;;;;;5059389;28;19916;-57
2023/05/26 12:03:41;;;;;;;;;;;30.90;41.00;;;;;;5060879;28;19909;-56
2023/05/26 12:06:10;;;;;;;;;;;30.70;40.80;;;;;;5060501;28;19913;-57
2023/05/26 12:08:46;;;;;;;;;;;31.30;45.50;;;;;;5060377;28;20334;-57
2023/05/26 12:11:22;;;;;;;;;;;30.60;40.90;;;;;;5060558;28;19913;-56
2023/05/26 12:13:49;;;;;;;;;;;30.60;41.10;;;;;;5060456;28;19920;-56
2023/05/26 12:16:22;;;;;;;;;;;31.00;41.40;;;;;;5060368;28;19916;-56
2023/05/26 12:18:50;;;;;;;;;;;31.10;43.00;;;;;;5060189;28;19909;-53
2023/05/26 12:21:16;;;;;;;;;;;31.90;44.90;;;;;;5060693;28;19909;-54
2023/05/26 12:23:42;;;;;;;;;;;31.50;41.30;;;;;;5060068;28;19916;-56
2023/05/26 12:26:17;;;;;;;;;;;30.50;41.80;;;;;;5060584;28;20276;-56
2023/05/26 12:28:43;;;;;;;;;;;30.40;38.40;;;;;;5060232;28;19955;-56
2023/05/26 12:31:10;;;;;;;;;;;30.10;40.80;;;;;;5060105;28;19909;-57
2023/05/26 12:33:36;;;;;;;;;;;30.10;40.50;;;;;;5059918;28;20047;-57
2023/05/26 12:36:01;;;;;;;;;;;30.60;42.90;;;;;;5060548;28;20327;-57
2023/05/26 12:38:27;;;;;;;;;;;31.40;40.90;;;;;;5059964;28;20367;-57
2023/05/26 12:40:53;;;;;;;;;;;31.90;40.00;;;;;;5059756;28;19916;-56
2023/05/26 12:43:20;;;;;;;;;;;31.50;39.10;;;;;;5060357;28;19909;-56
2023/05/26 12:45:46;;;;;;;;;;;31.70;41.60;;;;;;5059575;28;19936;-56
2023/05/26 12:48:12;;;;;;;;;;;32.10;39.70;;;;;;5059695;28;19908;-57
2023/05/26 12:50:37;;;;;;;;;;;31.40;36.50;;;;;;5060050;28;19908;-56
2023/05/26 12:53:03;;;;;;;;;;;30.40;37.30;;;;;;5059729;28;19909;-56
2023/05/26 12:55:29;;;;;;;;;;;30.10;38.20;;;;;;5059572;28;20008;-54
2023/05/26 12:57:54;;;;;;;;;;;30.60;39.20;;;;;;5059422;28;19912;-57
2023/05/26 13:00:20;;;;;;;;;;;30.90;37.50;;;;;;5058573;28;19952;-57
2023/05/26 13:02:46;;;;;;;;;;;30.70;40.00;;;;;;5059567;28;19915;-57
2023/05/26 13:05:11;;;;;;;;;;;30.80;38.90;;;;;;5059174;28;19920;-56
2023/05/26 13:07:38;;;;;;;;;;;31.10;40.40;;;;;;5059720;28;19939;-55
2023/05/26 13:10:04;;;;;;;;;;;30.90;39.60;;;;;;5059336;28;19909;-56
2023/05/26 13:12:30;;;;;;;;;;;31.30;39.30;;;;;;5059267;28;19920;-58
2023/05/26 13:14:55;;;;;;;;;;;31.30;39.20;;;;;;5059484;28;19913;-56
2023/05/26 13:17:21;;;;;;;;;;;30.90;37.50;;;;;;5059667;28;19931;-57
2023/05/26 13:19:46;;;;;;;;;;;30.30;37.90;;;;;;5059225;28;20337;-56
2023/05/26 13:22:12;;;;;;;;;;;29.90;38.30;;;;;;5058972;28;19909;-56
2023/05/26 13:24:38;;;;;;;;;;;29.50;36.80;;;;;;5058977;28;19917;-58
2023/05/26 13:27:04;;;;;;;;;;;30.00;39.70;;;;;;5059341;28;20275;-56
2023/05/26 13:29:30;;;;;;;;;;;30.10;38.40;;;;;;5058800;28;19952;-58
2023/05/26 13:31:58;;;;;;;;;;;29.80;38.00;;;;;;5058894;28;19909;-57
2023/05/26 13:34:23;;;;;;;;;;;29.80;38.40;;;;;;5058829;28;19980;-57
2023/05/26 13:36:50;;;;;;;;;;;29.90;37.70;;;;;;5058775;28;20399;-58
2023/05/26 13:39:15;;;;;;;;;;;29.70;38.00;;;;;;5058052;28;19913;-56
2023/05/26 13:41:41;;;;;;;;;;;29.50;38.60;;;;;;5059002;28;19919;-56
2023/05/26 13:44:06;;;;;;;;;;;29.60;38.90;;;;;;5058650;28;19915;-57
2023/05/26 13:46:32;;;;;;;;;;;29.50;37.30;;;;;;5059010;28;19913;-58
2023/05/26 13:48:58;;;;;;;;;;;29.10;37.40;;;;;;5058777;28;19909;-57
2023/05/26 13:51:24;;;;;;;;;;;29.40;39.00;;;;;;5058629;28;19909;-56
2023/05/26 13:53:50;;;;;;;;;;;29.70;39.70;;;;;;5058484;28;19912;-57
2023/05/26 13:56:15;;;;;;;;;;;29.80;38.70;;;;;;5058688;28;19955;-58
2023/05/26 13:58:41;;;;;;;;;;;29.50;38.10;;;;;;5058490;28;19908;-57
2023/05/26 14:01:07;;;;;;;;;;;29.20;37.00;;;;;;5058567;28;19992;-57
2023/05/26 14:03:32;;;;;;;;;;;28.60;37.80;;;;;;5058428;28;19915;-56
2023/05/26 14:05:58;;;;;;;;;;;28.80;38.90;;;;;;5058580;28;19920;-57
2023/05/26 14:08:24;;;;;;;;;;;28.40;38.80;;;;;;5057949;28;19909;-55
2023/05/26 14:10:49;;;;;;;;;;;28.60;38.60;;;;;;5058546;28;19915;-55
2023/05/26 14:13:16;;;;;;;;;;;28.90;39.00;;;;;;5057889;28;19924;-57
2023/05/26 14:15:41;;;;;;;;;;;29.20;38.90;;;;;;5058371;28;19920;-56